sensor_id;sensor_type;location;lat;lon;timestamp;temperature;humidity
20881;DHT22;10600;53.096;8.802;2024-03-23T00:53:56;7.00;99.90
20881;DHT22;10600;53.096;8.802;2024-03-23T00:54:56;7.00;99.90
20881;DHT22;10600;53.096;8.802;2024-03-23T00:55:57;7.00;99.90
20881;DHT22;10600;53.096;8.802;2024-03-23T00:56:57;7.00;99.90
20881;DHT22;10600;53.096;8.802;2024-03-23T00:57:58;7.00;99.90
20881;DHT22;10600;53.096;8.802;2024-03-23T00:58:58;7.00;99.90
20881;DHT22;10600;53.096;8.802;2024-03-23T00:59:59;7.00;99.90
20881;DHT22;10600;53.096;8.802;2024-03-23T01:00:59;7.00;99.90
20881;DHT22;10600;53.096;8.802;2024-03-23T01:02:00;7.00;99.90
20881;DHT22;10600;53.096;8.802;2024-03-23T01:03:01;7.00;99.90
20881;DHT22;10600;53.096;8.802;2024-03-23T01:04:02;7.00;99.90
20881;DHT22;10600;53.096;8.802;2024-03-23T01:05:03;7.00;99.90
20881;DHT22;10600;53.096;8.802;2024-03-23T01:06:04;6.90;99.90
20881;DHT22;10600;53.096;8.802;2024-03-23T01:07:04;7.00;99.90
20881;DHT22;10600;53.096;8.802;2024-03-23T01:08:05;6.90;99.90
20881;DHT22;10600;53.096;8.802;2024-03-23T01:09:06;6.90;99.90
20881;DHT22;10600;53.096;8.802;2024-03-23T01:10:06;6.90;99.90
20881;DHT22;10600;53.096;8.802;2024-03-23T01:11:07;6.90;99.90
20881;DHT22;10600;53.096;8.802;2024-03-23T01:12:08;6.90;99.90
20881;DHT22;10600;53.096;8.802;2024-03-23T01:13:09;6.90;99.90
20881;DHT22;10600;53.096;8.802;2024-03-23T01:14:09;6.90;99.90
20881;DHT22;10600;53.096;8.802;2024-03-23T01:15:10;6.90;99.90
20881;DHT22;10600;53.096;8.802;2024-03-23T01:16:10;6.90;99.90
20881;DHT22;10600;53.096;8.802;2024-03-23T01:17:11;6.90;99.90
20881;DHT22;10600;53.096;8.802;2024-03-23T01:18:11;6.90;99.90
20881;DHT22;10600;53.096;8.802;2024-03-23T01:19:12;6.90;99.90
20881;DHT22;10600;53.096;8.802;2024-03-23T01:20:12;6.90;99.90
20881;DHT22;10600;53.096;8.802;2024-03-23T01:21:13;6.90;99.90
20881;DHT22;10600;53.096;8.802;2024-03-23T01:22:13;6.90;99.90
20881;DHT22;10600;53.096;8.802;2024-03-23T01:23:14;6.90;99.90
20881;DHT22;10600;53.096;8.802;2024-03-23T01:24:15;6.90;99.90
20881;DHT22;10600;53.096;8.802;2024-03-23T01:25:16;6.90;99.90
20881;DHT22;10600;53.096;8.802;2024-03-23T01:26:16;6.90;99.90
20881;DHT22;10600;53.096;8.802;2024-03-23T01:27:17;6.90;99.90
20881;DHT22;10600;53.096;8.802;2024-03-23T01:28:17;6.90;99.90
20881;DHT22;10600;53.096;8.802;2024-03-23T01:29:18;6.90;99.90
20881;DHT22;10600;53.096;8.802;2024-03-23T01:30:18;6.90;99.90
20881;DHT22;10600;53.096;8.802;2024-03-23T01:31:19;6.90;99.90
20881;DHT22;10600;53.096;8.802;2024-03-23T01:32:19;6.90;99.90
20881;DHT22;10600;53.096;8.802;2024-03-23T01:33:20;6.90;99.90
20881;DHT22;10600;53.096;8.802;2024-03-23T01:34:20;6.80;99.90
20881;DHT22;10600;53.096;8.802;2024-03-23T01:35:21;6.90;99.90
20881;DHT22;10600;53.096;8.802;2024-03-23T01:36:22;6.90;99.90
20881;DHT22;10600;53.096;8.802;2024-03-23T01:37:22;6.90;99.90
20881;DHT22;10600;53.096;8.802;2024-03-23T01:38:23;6.80;99.90
20881;DHT22;10600;53.096;8.802;2024-03-23T01:39:23;6.90;99.90
20881;DHT22;10600;53.096;8.802;2024-03-23T01:40:24;6.80;99.90
20881;DHT22;10600;53.096;8.802;2024-03-23T01:41:25;6.80;99.90
20881;DHT22;10600;53.096;8.802;2024-03-23T01:42:25;6.80;99.90
20881;DHT22;10600;53.096;8.802;2024-03-23T01:43:26;6.90;99.90
20881;DHT22;10600;53.096;8.802;2024-03-23T01:44:27;6.90;99.90
20881;DHT22;10600;53.096;8.802;2024-03-23T01:45:27;6.90;99.90
20881;DHT22;10600;53.096;8.802;2024-03-23T01:46:28;6.80;99.90
20881;DHT22;10600;53.096;8.802;2024-03-23T01:47:28;6.80;99.90
20881;DHT22;10600;53.096;8.802;2024-03-23T01:48:29;6.80;99.90
20881;DHT22;10600;53.096;8.802;2024-03-23T01:49:29;6.80;99.90
20881;DHT22;10600;53.096;8.802;2024-03-23T01:50:31;6.80;99.90
20881;DHT22;10600;53.096;8.802;2024-03-23T01:51:34;6.80;99.90
20881;DHT22;10600;53.096;8.802;2024-03-23T01:52:35;6.80;99.90
20881;DHT22;10600;53.096;8.802;2024-03-23T01:53:36;6.80;99.90
20881;DHT22;10600;53.096;8.802;2024-03-23T01:54:36;6.80;99.90
20881;DHT22;10600;53.096;8.802;2024-03-23T01:55:38;6.80;99.90
20881;DHT22;10600;53.096;8.802;2024-03-23T01:56:39;6.80;99.90
20881;DHT22;10600;53.096;8.802;2024-03-23T01:57:40;6.80;99.90
20881;DHT22;10600;53.096;8.802;2024-03-23T01:58:40;6.80;99.90
20881;DHT22;10600;53.096;8.802;2024-03-23T01:59:41;6.80;99.90
20881;DHT22;10600;53.096;8.802;2024-03-23T02:00:41;6.80;99.90
20881;DHT22;10600;53.096;8.802;2024-03-23T02:01:42;6.80;99.90
20881;DHT22;10600;53.096;8.802;2024-03-23T02:02:46;6.80;99.90
20881;DHT22;10600;53.096;8.802;2024-03-23T02:03:46;6.80;99.90
20881;DHT22;10600;53.096;8.802;2024-03-23T02:04:47;6.80;99.90
20881;DHT22;10600;53.096;8.802;2024-03-23T02:05:47;6.80;99.90
20881;DHT22;10600;53.096;8.802;2024-03-23T02:06:48;6.80;99.90
20881;DHT22;10600;53.096;8.802;2024-03-23T02:07:49;6.80;99.90
20881;DHT22;10600;53.096;8.802;2024-03-23T02:08:51;6.80;99.90
20881;DHT22;10600;53.096;8.802;2024-03-23T02:09:52;6.80;99.90
20881;DHT22;10600;53.096;8.802;2024-03-23T02:10:53;6.80;99.90
20881;DHT22;10600;53.096;8.802;2024-03-23T02:11:54;6.70;99.90
20881;DHT22;10600;53.096;8.802;2024-03-23T02:12:55;6.70;99.90
20881;DHT22;10600;53.096;8.802;2024-03-23T02:13:55;6.70;99.90
20881;DHT22;10600;53.096;8.802;2024-03-23T02:14:56;6.70;99.90
20881;DHT22;10600;53.096;8.802;2024-03-23T02:15:56;6.70;99.90
20881;DHT22;10600;53.096;8.802;2024-03-23T02:16:57;6.70;99.90
20881;DHT22;10600;53.096;8.802;2024-03-23T02:17:57;6.70;99.90
20881;DHT22;10600;53.096;8.802;2024-03-23T02:18:58;6.70;99.90
20881;DHT22;10600;53.096;8.802;2024-03-23T02:19:58;6.70;99.90
20881;DHT22;10600;53.096;8.802;2024-03-23T02:20:59;6.70;99.90
20881;DHT22;10600;53.096;8.802;2024-03-23T02:21:59;6.70;99.90
20881;DHT22;10600;53.096;8.802;2024-03-23T02:23:00;6.70;99.90
20881;DHT22;10600;53.096;8.802;2024-03-23T02:24:00;6.70;99.90
20881;DHT22;10600;53.096;8.802;2024-03-23T02:25:03;6.70;99.90
20881;DHT22;10600;53.096;8.802;2024-03-23T02:26:04;6.70;99.90
20881;DHT22;10600;53.096;8.802;2024-03-23T02:27:05;6.70;99.90
20881;DHT22;10600;53.096;8.802;2024-03-23T02:28:05;6.70;99.90
20881;DHT22;10600;53.096;8.802;2024-03-23T02:29:06;6.70;99.90
20881;DHT22;10600;53.096;8.802;2024-03-23T02:30:07;6.70;99.90
20881;DHT22;10600;53.096;8.802;2024-03-23T02:31:07;6.70;99.90
20881;DHT22;10600;53.096;8.802;2024-03-23T02:32:08;6.70;99.90
20881;DHT22;10600;53.096;8.802;2024-03-23T02:33:11;6.70;99.90
20881;DHT22;10600;53.096;8.802;2024-03-23T02:34:12;6.70;99.90
20881;DHT22;10600;53.096;8.802;2024-03-23T02:35:12;6.70;99.90
20881;DHT22;10600;53.096;8.802;2024-03-23T02:36:13;6.70;99.90
20881;DHT22;10600;53.096;8.802;2024-03-23T02:37:13;6.70;99.90
20881;DHT22;10600;53.096;8.802;2024-03-23T02:38:14;6.70;99.90
20881;DHT22;10600;53.096;8.802;2024-03-23T02:39:14;6.70;99.90
20881;DHT22;10600;53.096;8.802;2024-03-23T02:40:16;6.70;99.90
20881;DHT22;10600;53.096;8.802;2024-03-23T02:41:16;6.70;99.90
20881;DHT22;10600;53.096;8.802;2024-03-23T02:42:23;6.70;99.90
20881;DHT22;10600;53.096;8.802;2024-03-23T02:43:23;6.70;99.90
20881;DHT22;10600;53.096;8.802;2024-03-23T02:44:24;6.70;99.90
20881;DHT22;10600;53.096;8.802;2024-03-23T02:45:24;6.70;99.90
20881;DHT22;10600;53.096;8.802;2024-03-23T02:46:25;6.70;99.90
20881;DHT22;10600;53.096;8.802;2024-03-23T02:47:25;6.70;99.90
20881;DHT22;10600;53.096;8.802;2024-03-23T02:48:26;6.70;99.90
20881;DHT22;10600;53.096;8.802;2024-03-23T02:49:27;6.70;99.90
20881;DHT22;10600;53.096;8.802;2024-03-23T02:50:28;6.70;99.90
20881;DHT22;10600;53.096;8.802;2024-03-23T02:51:28;6.60;99.90
20881;DHT22;10600;53.096;8.802;2024-03-23T02:52:29;6.70;99.90
20881;DHT22;10600;53.096;8.802;2024-03-23T02:53:30;6.60;99.90
20881;DHT22;10600;53.096;8.802;2024-03-23T02:54:30;6.60;99.90
20881;DHT22;10600;53.096;8.802;2024-03-23T02:55:31;6.60;99.90
20881;DHT22;10600;53.096;8.802;2024-03-23T02:56:32;6.60;99.90
20881;DHT22;10600;53.096;8.802;2024-03-23T02:57:33;6.60;99.90
20881;DHT22;10600;53.096;8.802;2024-03-23T02:58:33;6.60;99.90
20881;DHT22;10600;53.096;8.802;2024-03-23T02:59:34;6.60;99.90
20881;DHT22;10600;53.096;8.802;2024-03-23T03:00:34;6.60;99.90
20881;DHT22;10600;53.096;8.802;2024-03-23T03:01:35;6.60;99.90
20881;DHT22;10600;53.096;8.802;2024-03-23T03:02:36;6.60;99.90
20881;DHT22;10600;53.096;8.802;2024-03-23T03:03:37;6.60;99.90
20881;DHT22;10600;53.096;8.802;2024-03-23T03:04:38;6.60;99.90
20881;DHT22;10600;53.096;8.802;2024-03-23T03:05:38;6.60;99.90
20881;DHT22;10600;53.096;8.802;2024-03-23T03:06:39;6.60;99.90
20881;DHT22;10600;53.096;8.802;2024-03-23T03:07:41;6.60;99.90
20881;DHT22;10600;53.096;8.802;2024-03-23T03:08:41;6.60;99.90
20881;DHT22;10600;53.096;8.802;2024-03-23T03:09:42;6.60;99.90
20881;DHT22;10600;53.096;8.802;2024-03-23T03:10:42;6.50;99.90
20881;DHT22;10600;53.096;8.802;2024-03-23T03:11:43;6.60;99.90
20881;DHT22;10600;53.096;8.802;2024-03-23T03:12:44;6.50;99.90
20881;DHT22;10600;53.096;8.802;2024-03-23T03:13:44;6.50;99.90
20881;DHT22;10600;53.096;8.802;2024-03-23T03:14:45;6.50;99.90
20881;DHT22;10600;53.096;8.802;2024-03-23T03:15:45;6.50;99.90
20881;DHT22;10600;53.096;8.802;2024-03-23T03:16:46;6.50;99.90
20881;DHT22;10600;53.096;8.802;2024-03-23T03:17:46;6.50;99.90
20881;DHT22;10600;53.096;8.802;2024-03-23T03:18:47;6.50;99.90
20881;DHT22;10600;53.096;8.802;2024-03-23T03:19:47;6.50;99.90
20881;DHT22;10600;53.096;8.802;2024-03-23T03:20:48;6.50;99.90
20881;DHT22;10600;53.096;8.802;2024-03-23T03:21:49;6.50;99.90
20881;DHT22;10600;53.096;8.802;2024-03-23T03:22:50;6.50;99.90
20881;DHT22;10600;53.096;8.802;2024-03-23T03:23:50;6.50;99.90
20881;DHT22;10600;53.096;8.802;2024-03-23T03:24:51;6.50;99.90
20881;DHT22;10600;53.096;8.802;2024-03-23T03:25:51;6.50;99.90
20881;DHT22;10600;53.096;8.802;2024-03-23T03:26:52;6.50;99.90
20881;DHT22;10600;53.096;8.802;2024-03-23T03:27:52;6.50;99.90
20881;DHT22;10600;53.096;8.802;2024-03-23T03:28:53;6.50;99.90
20881;DHT22;10600;53.096;8.802;2024-03-23T03:29:54;6.50;99.90
20881;DHT22;10600;53.096;8.802;2024-03-23T03:30:54;6.50;99.90
20881;DHT22;10600;53.096;8.802;2024-03-23T03:31:55;6.50;99.90
20881;DHT22;10600;53.096;8.802;2024-03-23T03:32:55;6.50;99.90
20881;DHT22;10600;53.096;8.802;2024-03-23T03:33:56;6.40;99.90
20881;DHT22;10600;53.096;8.802;2024-03-23T03:34:56;6.40;99.90
20881;DHT22;10600;53.096;8.802;2024-03-23T03:35:57;6.40;99.90
20881;DHT22;10600;53.096;8.802;2024-03-23T03:36:57;6.40;99.90
20881;DHT22;10600;53.096;8.802;2024-03-23T03:37:58;6.40;99.90
20881;DHT22;10600;53.096;8.802;2024-03-23T03:38:59;6.40;99.90
20881;DHT22;10600;53.096;8.802;2024-03-23T03:39:59;6.40;99.90
20881;DHT22;10600;53.096;8.802;2024-03-23T03:41:00;6.40;99.90
20881;DHT22;10600;53.096;8.802;2024-03-23T03:42:01;6.40;99.90
20881;DHT22;10600;53.096;8.802;2024-03-23T03:43:06;6.40;99.90
20881;DHT22;10600;53.096;8.802;2024-03-23T03:44:07;6.40;99.90
20881;DHT22;10600;53.096;8.802;2024-03-23T03:45:07;6.40;99.90
20881;DHT22;10600;53.096;8.802;2024-03-23T03:46:08;6.40;99.90
20881;DHT22;10600;53.096;8.802;2024-03-23T03:47:09;6.40;99.90
20881;DHT22;10600;53.096;8.802;2024-03-23T03:48:09;6.40;99.90
20881;DHT22;10600;53.096;8.802;2024-03-23T03:49:10;6.30;99.90
20881;DHT22;10600;53.096;8.802;2024-03-23T03:50:10;6.30;99.90
20881;DHT22;10600;53.096;8.802;2024-03-23T03:51:11;6.30;99.90
20881;DHT22;10600;53.096;8.802;2024-03-23T03:52:11;6.30;99.90
20881;DHT22;10600;53.096;8.802;2024-03-23T03:53:12;6.30;99.90
20881;DHT22;10600;53.096;8.802;2024-03-23T03:54:12;6.30;99.90
20881;DHT22;10600;53.096;8.802;2024-03-23T03:55:14;6.30;99.90
20881;DHT22;10600;53.096;8.802;2024-03-23T03:56:15;6.30;99.90
20881;DHT22;10600;53.096;8.802;2024-03-23T03:57:15;6.30;99.90
20881;DHT22;10600;53.096;8.802;2024-03-23T03:58:16;6.30;99.90
20881;DHT22;10600;53.096;8.802;2024-03-23T03:59:17;6.30;99.90
20881;DHT22;10600;53.096;8.802;2024-03-23T04:00:18;6.30;99.90
20881;DHT22;10600;53.096;8.802;2024-03-23T04:01:18;6.30;99.90
20881;DHT22;10600;53.096;8.802;2024-03-23T04:02:19;6.30;99.90
20881;DHT22;10600;53.096;8.802;2024-03-23T04:03:20;6.30;99.90
20881;DHT22;10600;53.096;8.802;2024-03-23T04:04:21;6.30;99.90
20881;DHT22;10600;53.096;8.802;2024-03-23T04:05:23;6.30;99.90
20881;DHT22;10600;53.096;8.802;2024-03-23T04:06:23;6.30;99.90
20881;DHT22;10600;53.096;8.802;2024-03-23T04:07:24;6.30;99.90
20881;DHT22;10600;53.096;8.802;2024-03-23T04:08:25;6.30;99.90
20881;DHT22;10600;53.096;8.802;2024-03-23T04:09:25;6.30;99.90
20881;DHT22;10600;53.096;8.802;2024-03-23T04:10:26;6.30;99.90
20881;DHT22;10600;53.096;8.802;2024-03-23T04:11:27;6.30;99.90
20881;DHT22;10600;53.096;8.802;2024-03-23T04:12:27;6.30;99.90
20881;DHT22;10600;53.096;8.802;2024-03-23T04:13:28;6.30;99.90
20881;DHT22;10600;53.096;8.802;2024-03-23T04:14:28;6.30;99.90
20881;DHT22;10600;53.096;8.802;2024-03-23T04:15:29;6.30;99.90
20881;DHT22;10600;53.096;8.802;2024-03-23T04:16:35;6.30;99.90
20881;DHT22;10600;53.096;8.802;2024-03-23T04:17:35;6.30;99.90
20881;DHT22;10600;53.096;8.802;2024-03-23T04:18:36;6.30;99.90
20881;DHT22;10600;53.096;8.802;2024-03-23T04:19:37;6.30;99.90
20881;DHT22;10600;53.096;8.802;2024-03-23T04:20:37;6.30;99.90
20881;DHT22;10600;53.096;8.802;2024-03-23T04:21:38;6.30;99.90
20881;DHT22;10600;53.096;8.802;2024-03-23T04:22:38;6.30;99.90
20881;DHT22;10600;53.096;8.802;2024-03-23T04:23:39;6.30;99.90
20881;DHT22;10600;53.096;8.802;2024-03-23T04:24:40;6.30;99.90
20881;DHT22;10600;53.096;8.802;2024-03-23T04:25:40;6.30;99.90
20881;DHT22;10600;53.096;8.802;2024-03-23T04:26:42;6.30;99.90
20881;DHT22;10600;53.096;8.802;2024-03-23T04:27:42;6.30;99.90
20881;DHT22;10600;53.096;8.802;2024-03-23T04:28:43;6.30;99.90
20881;DHT22;10600;53.096;8.802;2024-03-23T04:29:47;6.30;99.90
20881;DHT22;10600;53.096;8.802;2024-03-23T04:30:48;6.30;99.90
20881;DHT22;10600;53.096;8.802;2024-03-23T04:31:49;6.30;99.90
20881;DHT22;10600;53.096;8.802;2024-03-23T04:32:49;6.30;99.90
20881;DHT22;10600;53.096;8.802;2024-03-23T04:33:50;6.30;99.90
20881;DHT22;10600;53.096;8.802;2024-03-23T04:34:50;6.20;99.90
20881;DHT22;10600;53.096;8.802;2024-03-23T04:35:51;6.30;99.90
20881;DHT22;10600;53.096;8.802;2024-03-23T04:36:51;6.20;99.90
20881;DHT22;10600;53.096;8.802;2024-03-23T04:37:53;6.20;99.90
20881;DHT22;10600;53.096;8.802;2024-03-23T04:38:54;6.20;99.90
20881;DHT22;10600;53.096;8.802;2024-03-23T04:39:54;6.20;99.90
20881;DHT22;10600;53.096;8.802;2024-03-23T04:40:56;6.20;99.90
20881;DHT22;10600;53.096;8.802;2024-03-23T04:41:56;6.20;99.90
20881;DHT22;10600;53.096;8.802;2024-03-23T04:42:57;6.20;99.90
20881;DHT22;10600;53.096;8.802;2024-03-23T04:43:57;6.20;99.90
20881;DHT22;10600;53.096;8.802;2024-03-23T04:44:58;6.20;99.90
20881;DHT22;10600;53.096;8.802;2024-03-23T04:45:59;6.20;99.90
20881;DHT22;10600;53.096;8.802;2024-03-23T04:47:00;6.20;99.90
20881;DHT22;10600;53.096;8.802;2024-03-23T04:48:01;6.20;99.90
20881;DHT22;10600;53.096;8.802;2024-03-23T04:49:02;6.20;99.90
20881;DHT22;10600;53.096;8.802;2024-03-23T04:50:05;6.20;99.90
20881;DHT22;10600;53.096;8.802;2024-03-23T04:51:05;6.20;99.90
20881;DHT22;10600;53.096;8.802;2024-03-23T04:52:06;6.20;99.90
20881;DHT22;10600;53.096;8.802;2024-03-23T04:53:07;6.20;99.90
20881;DHT22;10600;53.096;8.802;2024-03-23T04:54:07;6.20;99.90
20881;DHT22;10600;53.096;8.802;2024-03-23T04:55:08;6.20;99.90
20881;DHT22;10600;53.096;8.802;2024-03-23T04:56:08;6.20;99.90
20881;DHT22;10600;53.096;8.802;2024-03-23T04:57:10;6.20;99.90
20881;DHT22;10600;53.096;8.802;2024-03-23T04:58:10;6.10;99.90
20881;DHT22;10600;53.096;8.802;2024-03-23T04:59:11;6.20;99.90
20881;DHT22;10600;53.096;8.802;2024-03-23T05:00:12;6.20;99.90
20881;DHT22;10600;53.096;8.802;2024-03-23T05:01:19;6.10;99.90
20881;DHT22;10600;53.096;8.802;2024-03-23T05:02:19;6.10;99.90
20881;DHT22;10600;53.096;8.802;2024-03-23T05:03:20;6.10;99.90
20881;DHT22;10600;53.096;8.802;2024-03-23T05:04:21;6.10;99.90
20881;DHT22;10600;53.096;8.802;2024-03-23T05:05:22;6.10;99.90
20881;DHT22;10600;53.096;8.802;2024-03-23T05:06:22;6.10;99.90
20881;DHT22;10600;53.096;8.802;2024-03-23T05:07:23;6.10;99.90
20881;DHT22;10600;53.096;8.802;2024-03-23T05:08:24;6.10;99.90
20881;DHT22;10600;53.096;8.802;2024-03-23T05:09:25;6.10;99.90
20881;DHT22;10600;53.096;8.802;2024-03-23T05:10:30;6.10;99.90
20881;DHT22;10600;53.096;8.802;2024-03-23T05:11:33;6.10;99.90
20881;DHT22;10600;53.096;8.802;2024-03-23T05:12:34;6.00;99.90
20881;DHT22;10600;53.096;8.802;2024-03-23T05:13:35;6.10;99.90
20881;DHT22;10600;53.096;8.802;2024-03-23T05:14:35;6.00;99.90
20881;DHT22;10600;53.096;8.802;2024-03-23T05:15:36;6.00;99.90
20881;DHT22;10600;53.096;8.802;2024-03-23T05:16:36;6.00;99.90
20881;DHT22;10600;53.096;8.802;2024-03-23T05:17:38;6.00;99.90
20881;DHT22;10600;53.096;8.802;2024-03-23T05:18:39;6.00;99.90
20881;DHT22;10600;53.096;8.802;2024-03-23T05:19:39;6.00;99.90
20881;DHT22;10600;53.096;8.802;2024-03-23T05:20:40;5.90;99.90
20881;DHT22;10600;53.096;8.802;2024-03-23T05:21:40;5.90;99.90
20881;DHT22;10600;53.096;8.802;2024-03-23T05:22:41;5.90;99.90
20881;DHT22;10600;53.096;8.802;2024-03-23T05:23:41;5.90;99.90
20881;DHT22;10600;53.096;8.802;2024-03-23T05:24:45;5.90;99.90
20881;DHT22;10600;53.096;8.802;2024-03-23T05:25:45;5.90;99.90
20881;DHT22;10600;53.096;8.802;2024-03-23T05:26:46;5.90;99.90
20881;DHT22;10600;53.096;8.802;2024-03-23T05:27:46;5.80;99.90
20881;DHT22;10600;53.096;8.802;2024-03-23T05:28:47;5.80;99.90
20881;DHT22;10600;53.096;8.802;2024-03-23T05:29:48;5.80;99.90
20881;DHT22;10600;53.096;8.802;2024-03-23T05:30:53;5.80;99.90
20881;DHT22;10600;53.096;8.802;2024-03-23T05:31:53;5.80;99.90
20881;DHT22;10600;53.096;8.802;2024-03-23T05:32:56;5.80;99.90
20881;DHT22;10600;53.096;8.802;2024-03-23T05:33:57;5.80;99.90
20881;DHT22;10600;53.096;8.802;2024-03-23T05:34:57;5.80;99.90
20881;DHT22;10600;53.096;8.802;2024-03-23T05:36:00;5.80;99.90
20881;DHT22;10600;53.096;8.802;2024-03-23T05:37:00;5.80;99.90
20881;DHT22;10600;53.096;8.802;2024-03-23T05:38:01;5.80;99.90
20881;DHT22;10600;53.096;8.802;2024-03-23T05:39:02;5.80;99.90
20881;DHT22;10600;53.096;8.802;2024-03-23T05:40:02;5.70;99.90
20881;DHT22;10600;53.096;8.802;2024-03-23T05:41:04;5.70;99.90
20881;DHT22;10600;53.096;8.802;2024-03-23T05:42:04;5.70;99.90
20881;DHT22;10600;53.096;8.802;2024-03-23T05:43:08;5.70;99.90
20881;DHT22;10600;53.096;8.802;2024-03-23T05:44:09;5.70;99.90
20881;DHT22;10600;53.096;8.802;2024-03-23T05:45:11;5.70;99.90
20881;DHT22;10600;53.096;8.802;2024-03-23T05:46:11;5.70;99.90
20881;DHT22;10600;53.096;8.802;2024-03-23T05:47:12;5.70;99.90
20881;DHT22;10600;53.096;8.802;2024-03-23T05:48:15;5.70;99.90
20881;DHT22;10600;53.096;8.802;2024-03-23T05:49:16;5.70;99.90
20881;DHT22;10600;53.096;8.802;2024-03-23T05:50:18;5.70;99.90
20881;DHT22;10600;53.096;8.802;2024-03-23T05:51:18;5.70;99.90
20881;DHT22;10600;53.096;8.802;2024-03-23T05:52:19;5.70;99.90
20881;DHT22;10600;53.096;8.802;2024-03-23T05:53:21;5.70;99.90
20881;DHT22;10600;53.096;8.802;2024-03-23T05:54:22;5.70;99.90
20881;DHT22;10600;53.096;8.802;2024-03-23T05:55:22;5.70;99.90
20881;DHT22;10600;53.096;8.802;2024-03-23T05:56:23;5.70;99.90
20881;DHT22;10600;53.096;8.802;2024-03-23T05:57:23;5.70;99.90
20881;DHT22;10600;53.096;8.802;2024-03-23T05:58:24;5.70;99.90
20881;DHT22;10600;53.096;8.802;2024-03-23T05:59:24;5.70;99.90
20881;DHT22;10600;53.096;8.802;2024-03-23T06:00:25;5.70;99.90
20881;DHT22;10600;53.096;8.802;2024-03-23T06:01:26;5.70;99.90
20881;DHT22;10600;53.096;8.802;2024-03-23T06:02:29;5.70;99.90
20881;DHT22;10600;53.096;8.802;2024-03-23T06:03:29;5.70;99.90
20881;DHT22;10600;53.096;8.802;2024-03-23T06:04:30;5.70;99.90
20881;DHT22;10600;53.096;8.802;2024-03-23T06:05:31;5.70;99.90
20881;DHT22;10600;53.096;8.802;2024-03-23T06:06:31;5.70;99.90
20881;DHT22;10600;53.096;8.802;2024-03-23T06:07:32;5.70;99.90
20881;DHT22;10600;53.096;8.802;2024-03-23T06:08:32;5.70;99.90
20881;DHT22;10600;53.096;8.802;2024-03-23T06:09:33;5.70;99.90
20881;DHT22;10600;53.096;8.802;2024-03-23T06:10:33;5.70;99.90
20881;DHT22;10600;53.096;8.802;2024-03-23T06:11:34;5.70;99.90
20881;DHT22;10600;53.096;8.802;2024-03-23T06:12:36;5.70;99.90
20881;DHT22;10600;53.096;8.802;2024-03-23T06:13:37;5.70;99.90
20881;DHT22;10600;53.096;8.802;2024-03-23T06:14:37;5.70;99.90
20881;DHT22;10600;53.096;8.802;2024-03-23T06:15:38;5.70;99.90
20881;DHT22;10600;53.096;8.802;2024-03-23T06:16:39;5.70;99.90
20881;DHT22;10600;53.096;8.802;2024-03-23T06:17:40;5.70;99.90
20881;DHT22;10600;53.096;8.802;2024-03-23T06:18:40;5.70;99.90
20881;DHT22;10600;53.096;8.802;2024-03-23T06:19:41;5.70;99.90
20881;DHT22;10600;53.096;8.802;2024-03-23T06:20:42;5.70;99.90
20881;DHT22;10600;53.096;8.802;2024-03-23T06:21:43;5.70;99.90
20881;DHT22;10600;53.096;8.802;2024-03-23T06:22:44;5.70;99.90
20881;DHT22;10600;53.096;8.802;2024-03-23T06:23:45;5.80;99.90
20881;DHT22;10600;53.096;8.802;2024-03-23T06:24:51;5.80;99.90
20881;DHT22;10600;53.096;8.802;2024-03-23T06:25:51;5.80;99.90
20881;DHT22;10600;53.096;8.802;2024-03-23T06:26:52;5.80;99.90
20881;DHT22;10600;53.096;8.802;2024-03-23T06:27:52;5.80;99.90
20881;DHT22;10600;53.096;8.802;2024-03-23T06:28:53;5.80;99.90
20881;DHT22;10600;53.096;8.802;2024-03-23T06:29:54;5.80;99.90
20881;DHT22;10600;53.096;8.802;2024-03-23T06:30:54;5.90;99.90
20881;DHT22;10600;53.096;8.802;2024-03-23T06:31:55;5.90;99.90
20881;DHT22;10600;53.096;8.802;2024-03-23T06:32:58;5.90;99.90
20881;DHT22;10600;53.096;8.802;2024-03-23T06:33:59;5.90;99.90
20881;DHT22;10600;53.096;8.802;2024-03-23T06:34:59;5.90;99.90
20881;DHT22;10600;53.096;8.802;2024-03-23T06:36:00;5.90;99.90
20881;DHT22;10600;53.096;8.802;2024-03-23T06:37:01;6.00;99.90
20881;DHT22;10600;53.096;8.802;2024-03-23T06:38:01;6.00;99.90
20881;DHT22;10600;53.096;8.802;2024-03-23T06:39:02;6.00;99.90
20881;DHT22;10600;53.096;8.802;2024-03-23T06:40:03;6.00;99.90
20881;DHT22;10600;53.096;8.802;2024-03-23T06:41:06;6.10;99.90
20881;DHT22;10600;53.096;8.802;2024-03-23T06:42:07;6.10;99.90
20881;DHT22;10600;53.096;8.802;2024-03-23T06:43:08;6.10;99.90
20881;DHT22;10600;53.096;8.802;2024-03-23T06:44:09;6.10;99.90
20881;DHT22;10600;53.096;8.802;2024-03-23T06:45:09;6.20;99.90
20881;DHT22;10600;53.096;8.802;2024-03-23T06:46:10;6.20;99.90
20881;DHT22;10600;53.096;8.802;2024-03-23T06:47:10;6.20;99.90
20881;DHT22;10600;53.096;8.802;2024-03-23T06:48:11;6.20;99.90
20881;DHT22;10600;53.096;8.802;2024-03-23T06:49:12;6.20;99.90
20881;DHT22;10600;53.096;8.802;2024-03-23T06:50:12;6.30;99.90
20881;DHT22;10600;53.096;8.802;2024-03-23T06:51:13;6.30;99.90
20881;DHT22;10600;53.096;8.802;2024-03-23T06:52:13;6.30;99.90
20881;DHT22;10600;53.096;8.802;2024-03-23T06:53:14;6.30;99.90
20881;DHT22;10600;53.096;8.802;2024-03-23T06:54:16;6.30;99.90
20881;DHT22;10600;53.096;8.802;2024-03-23T06:55:16;6.40;99.90
20881;DHT22;10600;53.096;8.802;2024-03-23T06:56:17;6.40;99.90
20881;DHT22;10600;53.096;8.802;2024-03-23T06:57:17;6.40;99.90
20881;DHT22;10600;53.096;8.802;2024-03-23T06:58:22;6.40;99.90
20881;DHT22;10600;53.096;8.802;2024-03-23T06:59:22;6.50;99.90
20881;DHT22;10600;53.096;8.802;2024-03-23T07:00:23;6.50;99.90
20881;DHT22;10600;53.096;8.802;2024-03-23T07:01:24;6.50;99.90
20881;DHT22;10600;53.096;8.802;2024-03-23T07:02:24;6.60;99.90
20881;DHT22;10600;53.096;8.802;2024-03-23T07:03:25;6.60;99.90
20881;DHT22;10600;53.096;8.802;2024-03-23T07:04:26;6.60;99.90
20881;DHT22;10600;53.096;8.802;2024-03-23T07:05:26;6.70;99.90
20881;DHT22;10600;53.096;8.802;2024-03-23T07:06:27;6.60;99.90
20881;DHT22;10600;53.096;8.802;2024-03-23T07:07:28;6.70;99.90
20881;DHT22;10600;53.096;8.802;2024-03-23T07:08:30;6.70;99.90
20881;DHT22;10600;53.096;8.802;2024-03-23T07:09:31;6.70;99.90
20881;DHT22;10600;53.096;8.802;2024-03-23T07:10:31;6.70;99.90
20881;DHT22;10600;53.096;8.802;2024-03-23T07:11:32;6.80;99.90
20881;DHT22;10600;53.096;8.802;2024-03-23T07:12:32;6.80;99.90
20881;DHT22;10600;53.096;8.802;2024-03-23T07:13:33;6.90;99.90
20881;DHT22;10600;53.096;8.802;2024-03-23T07:14:33;6.90;99.90
20881;DHT22;10600;53.096;8.802;2024-03-23T07:15:34;6.90;99.90
20881;DHT22;10600;53.096;8.802;2024-03-23T07:16:34;6.90;99.90
20881;DHT22;10600;53.096;8.802;2024-03-23T07:17:35;7.00;99.90
20881;DHT22;10600;53.096;8.802;2024-03-23T07:18:35;7.00;99.90
20881;DHT22;10600;53.096;8.802;2024-03-23T07:19:36;7.00;99.90
20881;DHT22;10600;53.096;8.802;2024-03-23T07:20:36;7.00;99.90
20881;DHT22;10600;53.096;8.802;2024-03-23T07:21:37;7.10;99.90
20881;DHT22;10600;53.096;8.802;2024-03-23T07:22:37;7.10;99.90
20881;DHT22;10600;53.096;8.802;2024-03-23T07:23:38;7.10;99.90